Terminal Aerodrome Forecast
Issued by NWS Upton, NY

Home | Current Version | Previous Version | Text Only | Print | Product List | Glossary On
Versions: 1 2 3 4 5 6 7 8 9 10 11 12 13 14 15 16 17 18 19 20 21 22 23 24 25 26
818
FTUS41 KOKX 101120
TAFEWR
TAF
KEWR 101120Z 1012/1118 21006KT 6SM -SNDZ BKN020 OVC035
      TEMPO 1012/1013 BKN008
     FM101300 28011KT P6SM -SHSN BKN030
     FM101500 27016G23KT P6SM BKN040
     FM110400 28011G18KT P6SM BKN040
     FM111400 29014G22KT P6SM BKN040=

USA.gov is the U.S. government's official web portal to all federal, state and local government web resources and services.